Time;durP1;ratioP1;P1;durP2;ratioP2;P2;SDS_P1;SDS_P2;PMS_P1;PMS_P2;Temp;Humidity;BMP_temperature;BMP_pressure;BME280_temperature;BME280_humidity;BME280_pressure;Samples;Min_cycle;Max_cycle;Signal;HPM_P1;HPM_P2
2021/12/20 00:00:07;;;;;;;4.47;2.58;;;3.80;99.90;;;;;;5030410;28;20204;-51
2021/12/20 00:02:39;;;;;;;3.53;2.15;;;3.80;99.90;;;;;;5030700;28;20729;-52
2021/12/20 00:05:07;;;;;;;3.53;1.92;;;3.30;99.90;;;;;;5030464;28;20204;-50
2021/12/20 00:07:33;;;;;;;6.53;1.98;;;3.60;99.90;;;;;;5033084;28;20555;-52
2021/12/20 00:10:01;;;;;;;5.70;2.13;;;3.80;99.90;;;;;;5033781;28;20199;-50
2021/12/20 00:12:28;;;;;;;5.97;2.00;;;4.10;99.90;;;;;;5034016;28;20216;-52
2021/12/20 00:14:54;;;;;;;5.93;2.42;;;3.20;99.90;;;;;;5034229;28;20275;-49
2021/12/20 00:17:21;;;;;;;4.22;2.03;;;3.60;99.90;;;;;;5034054;28;20665;-50
2021/12/20 00:19:48;;;;;;;2.92;1.50;;;3.50;99.90;;;;;;5033725;28;20225;-50
2021/12/20 00:22:14;;;;;;;5.10;1.90;;;3.60;99.90;;;;;;5033615;28;20222;-50
2021/12/20 00:24:41;;;;;;;5.07;1.90;;;3.20;99.90;;;;;;5034093;28;20207;-50
2021/12/20 00:27:11;;;;;;;5.68;2.10;;;3.60;99.90;;;;;;5033800;28;20570;-50
2021/12/20 00:29:38;;;;;;;5.50;2.17;;;3.50;99.90;;;;;;5033496;28;20274;-50
2021/12/20 00:32:05;;;;;;;3.90;1.83;;;3.40;99.90;;;;;;5033735;28;20208;-50
2021/12/20 00:34:33;;;;;;;5.10;2.05;;;3.50;99.90;;;;;;5033903;28;20192;-50
2021/12/20 00:37:04;;;;;;;7.05;2.53;;;3.60;99.90;;;;;;5033696;28;20560;-50
2021/12/20 00:42:16;;;;;;;4.82;1.80;;;3.60;99.90;;;;;;5033527;28;20299;-50
2021/12/20 00:44:43;;;;;;;5.63;1.60;;;3.50;99.90;;;;;;5033742;28;20193;-50
2021/12/20 00:47:10;;;;;;;4.00;2.10;;;3.30;99.90;;;;;;5033531;28;20205;-50
2021/12/20 00:49:36;;;;;;;3.00;1.42;;;3.50;99.90;;;;;;5023770;28;20662;-49
2021/12/20 00:52:04;;;;;;;5.25;2.00;;;3.30;99.90;;;;;;5012295;28;20579;-50
2021/12/20 00:54:30;;;;;;;4.40;1.95;;;3.40;99.90;;;;;;5013703;28;20205;-50
2021/12/20 00:56:57;;;;;;;2.83;1.85;;;3.80;99.90;;;;;;5026943;28;20568;-50
2021/12/20 00:59:25;;;;;;;2.75;1.63;;;3.60;99.90;;;;;;5033056;28;20231;-50
2021/12/20 01:01:52;;;;;;;5.20;1.83;;;3.40;99.90;;;;;;5033126;28;20228;-50
2021/12/20 01:04:19;;;;;;;3.65;1.80;;;3.40;99.90;;;;;;5031960;28;20229;-50
2021/12/20 01:06:45;;;;;;;6.57;2.35;;;3.30;99.90;;;;;;5033136;28;20208;-50
2021/12/20 01:09:12;;;;;;;5.43;1.90;;;3.40;99.90;;;;;;5032788;28;20201;-50
2021/12/20 01:11:41;;;;;;;8.20;1.70;;;2.60;99.90;;;;;;5033114;28;20197;-51
2021/12/20 01:14:08;;;;;;;2.05;1.20;;;3.60;99.90;;;;;;5031823;28;20319;-51
2021/12/20 01:16:36;;;;;;;4.72;1.98;;;3.30;99.90;;;;;;5032745;28;20201;-50
2021/12/20 01:19:03;;;;;;;4.70;1.75;;;3.40;99.90;;;;;;5031982;28;20251;-53
2021/12/20 01:21:30;;;;;;;4.10;1.42;;;3.00;99.90;;;;;;5031488;28;20212;-49
2021/12/20 01:23:56;;;;;;;5.32;1.85;;;3.40;99.90;;;;;;5033419;28;20221;-49
2021/12/20 01:26:23;;;;;;;6.65;1.60;;;3.60;99.90;;;;;;5032856;28;20204;-50
2021/12/20 01:28:50;;;;;;;2.55;1.50;;;3.40;99.90;;;;;;5032499;28;20212;-50
2021/12/20 01:31:16;;;;;;;4.78;1.70;;;3.60;99.90;;;;;;5032439;28;20292;-50
2021/12/20 01:33:44;;;;;;;6.15;1.58;;;3.40;99.90;;;;;;5032351;28;20225;-50
2021/12/20 01:36:11;;;;;;;7.03;1.40;;;3.30;99.90;;;;;;5032559;28;20208;-50
2021/12/20 01:38:38;;;;;;;4.40;1.60;;;3.30;99.90;;;;;;5032204;28;20216;-50
2021/12/20 01:41:05;;;;;;;7.38;2.50;;;3.30;99.90;;;;;;5032658;28;20229;-50
2021/12/20 01:43:32;;;;;;;4.82;1.45;;;3.10;99.90;;;;;;5032240;28;20274;-50
2021/12/20 01:46:00;;;;;;;2.53;1.30;;;3.20;99.90;;;;;;5032608;28;20196;-50
2021/12/20 01:48:27;;;;;;;7.15;2.38;;;3.20;99.90;;;;;;5030533;28;20196;-50
2021/12/20 01:53:50;;;;;;;4.07;2.05;;;3.10;99.90;;;;;;5012441;28;20756;-50
2021/12/20 01:56:18;;;;;;;3.92;1.65;;;3.00;99.90;;;;;;5020466;28;20255;-51
2021/12/20 01:58:44;;;;;;;2.65;1.40;;;3.60;99.90;;;;;;5031596;28;20216;-50
2021/12/20 02:01:21;;;;;;;2.70;1.40;;;3.20;99.90;;;;;;5032310;28;20204;-50
2021/12/20 02:03:55;;;;;;;3.80;1.50;;;3.40;99.90;;;;;;5032089;28;20299;-50
2021/12/20 02:06:28;;;;;;;2.15;1.33;;;3.00;99.90;;;;;;5030953;28;20208;-50
2021/12/20 02:08:55;;;;;;;2.95;1.30;;;3.20;99.90;;;;;;5031699;28;20197;-51
2021/12/20 02:11:22;;;;;;;3.97;1.70;;;2.90;99.90;;;;;;5031957;28;20572;-50
2021/12/20 02:13:50;;;;;;;5.72;1.38;;;3.20;99.90;;;;;;5031720;28;20228;-50
2021/12/20 02:16:17;;;;;;;5.72;1.30;;;2.80;99.90;;;;;;5026409;28;20222;-51
2021/12/20 02:18:43;;;;;;;5.32;1.95;;;2.90;99.90;;;;;;5013290;28;20243;-51
2021/12/20 02:21:11;;;;;;;6.53;1.60;;;3.20;99.90;;;;;;5012089;28;20197;-50
2021/12/20 02:23:38;;;;;;;6.75;1.80;;;2.90;99.90;;;;;;5011855;28;20891;-50
2021/12/20 02:26:05;;;;;;;5.05;1.30;;;2.90;99.90;;;;;;5012013;28;20285;-49
2021/12/20 02:28:37;;;;;;;5.03;1.65;;;2.80;99.90;;;;;;5011294;28;20205;-50
2021/12/20 02:37:02;;;;;;;3.45;1.35;;;3.10;99.90;;;;;;5011947;28;20323;-50
2021/12/20 02:39:30;;;;;;;6.35;1.30;;;2.80;99.90;;;;;;5011263;28;20275;-50
2021/12/20 02:41:57;;;;;;;6.47;1.67;;;2.30;99.90;;;;;;5011747;28;20197;-51
2021/12/20 02:44:25;;;;;;;2.97;1.40;;;2.70;99.90;;;;;;5011416;28;20194;-50
2021/12/20 02:47:04;;;;;;;3.20;1.35;;;2.80;99.90;;;;;;5011489;28;20243;-49
2021/12/20 02:49:32;;;;;;;4.72;1.10;;;3.00;99.90;;;;;;5011332;28;20563;-50
2021/12/20 02:52:02;;;;;;;4.53;1.50;;;2.00;99.90;;;;;;5010228;28;20212;-51
2021/12/20 02:54:29;;;;;;;4.18;1.48;;;3.00;99.90;;;;;;5011346;28;20300;-50
2021/12/20 02:56:56;;;;;;;5.65;1.85;;;2.80;99.90;;;;;;5011381;28;20197;-50
2021/12/20 02:59:23;;;;;;;4.40;1.80;;;2.70;99.90;;;;;;5010834;28;20275;-50
2021/12/20 03:01:53;;;;;;;8.73;1.75;;;2.60;99.90;;;;;;5011417;28;20611;-50
2021/12/20 03:04:20;;;;;;;9.45;2.05;;;2.90;99.90;;;;;;5011277;28;20197;-50
2021/12/20 03:06:49;;;;;;;3.67;1.20;;;2.60;99.90;;;;;;5010140;28;20200;-51
2021/12/20 03:09:21;;;;;;;7.20;1.92;;;2.30;99.90;;;;;;5010846;28;20229;-51
2021/12/20 03:11:51;;;;;;;3.88;1.58;;;2.60;99.90;;;;;;5011479;28;20642;-50
2021/12/20 03:14:21;;;;;;;5.13;2.05;;;2.60;99.90;;;;;;5009772;28;20325;-50
2021/12/20 03:16:48;;;;;;;6.20;1.50;;;3.10;99.90;;;;;;4993363;28;20589;-50
2021/12/20 03:19:15;;;;;;;8.48;2.38;;;2.80;99.90;;;;;;5010636;28;20571;-51
2021/12/20 03:21:42;;;;;;;3.65;1.48;;;2.70;99.90;;;;;;5011451;28;20213;-50
2021/12/20 03:24:09;;;;;;;5.60;1.85;;;2.60;99.90;;;;;;5009637;28;20228;-50
2021/12/20 03:26:37;;;;;;;4.07;1.73;;;3.10;99.90;;;;;;5011262;28;20563;-51
2021/12/20 03:29:04;;;;;;;8.77;2.05;;;2.60;99.90;;;;;;5010706;28;20296;-58
2021/12/20 03:31:32;;;;;;;3.10;1.65;;;2.60;99.90;;;;;;5011183;28;20636;-51
2021/12/20 03:33:59;;;;;;;8.75;1.70;;;2.70;99.90;;;;;;5010995;28;20213;-50
2021/12/20 03:36:26;;;;;;;3.85;2.10;;;2.60;99.90;;;;;;5011056;28;20241;-50
2021/12/20 03:38:52;;;;;;;3.58;1.30;;;3.00;99.90;;;;;;5010569;28;20201;-50
2021/12/20 03:41:19;;;;;;;4.50;1.50;;;2.70;99.90;;;;;;5012998;28;20211;-50
2021/12/20 03:43:47;;;;;;;7.30;2.25;;;2.50;99.90;;;;;;5015109;28;20217;-50
2021/12/20 03:46:14;;;;;;;3.03;1.40;;;2.70;99.90;;;;;;5015110;28;20208;-49
2021/12/20 03:48:41;;;;;;;6.35;2.45;;;2.50;99.90;;;;;;5014803;28;20689;-50
2021/12/20 03:51:07;;;;;;;4.20;1.65;;;2.50;99.90;;;;;;5014725;28;20204;-49
2021/12/20 03:53:35;;;;;;;9.75;2.00;;;2.40;99.90;;;;;;5015024;28;20224;-49
2021/12/20 03:56:04;;;;;;;3.10;1.77;;;2.50;99.90;;;;;;5014727;28;20198;-50
2021/12/20 03:58:32;;;;;;;4.13;1.38;;;2.40;99.90;;;;;;5014505;28;20200;-49
2021/12/20 04:01:02;;;;;;;4.75;1.92;;;2.30;99.90;;;;;;5014515;28;20221;-50
2021/12/20 04:03:31;;;;;;;6.45;1.70;;;2.60;99.90;;;;;;5014245;28;20221;-49
2021/12/20 04:05:58;;;;;;;9.73;1.77;;;2.60;99.90;;;;;;5014252;28;20202;-50
2021/12/20 04:08:25;;;;;;;5.45;1.80;;;2.60;99.90;;;;;;5014211;28;20197;-49
2021/12/20 04:10:52;;;;;;;9.68;1.83;;;2.10;99.90;;;;;;5014370;28;20196;-50
2021/12/20 04:13:19;;;;;;;5.10;1.88;;;2.60;99.90;;;;;;5014479;28;20217;-50
2021/12/20 04:15:45;;;;;;;5.50;2.40;;;2.40;99.90;;;;;;5013927;28;20221;-49
2021/12/20 04:18:14;;;;;;;6.47;1.80;;;2.70;99.90;;;;;;5013663;28;20609;-50
2021/12/20 04:20:40;;;;;;;10.65;2.45;;;2.50;99.90;;;;;;5014326;28;20232;-50
2021/12/20 04:23:07;;;;;;;4.80;1.90;;;2.80;99.90;;;;;;5014136;28;20224;-50
2021/12/20 04:25:33;;;;;;;10.63;3.90;;;2.40;99.90;;;;;;5014121;28;20202;-50
2021/12/20 04:28:00;;;;;;;5.45;1.67;;;2.40;99.90;;;;;;5013880;28;20205;-50
2021/12/20 04:30:31;;;;;;;5.00;1.60;;;2.30;99.90;;;;;;5018680;28;20570;-50
2021/12/20 04:32:58;;;;;;;4.50;1.60;;;2.20;99.90;;;;;;5012448;28;20244;-50
2021/12/20 04:35:26;;;;;;;8.20;2.30;;;1.90;99.90;;;;;;5014157;28;20208;-49
2021/12/20 04:37:53;;;;;;;3.08;1.77;;;2.20;99.90;;;;;;5013962;28;20205;-49
2021/12/20 04:40:22;;;;;;;5.28;1.80;;;2.30;99.90;;;;;;5014169;28;20224;-50
2021/12/20 04:42:50;;;;;;;4.82;2.67;;;2.40;99.90;;;;;;5014382;28;20804;-49
2021/12/20 04:45:17;;;;;;;10.30;1.92;;;2.20;99.90;;;;;;5013693;28;20205;-50
2021/12/20 04:47:44;;;;;;;6.90;1.98;;;2.40;99.90;;;;;;5013281;28;20642;-49
2021/12/20 04:50:11;;;;;;;7.75;2.88;;;2.40;99.90;;;;;;5014071;28;20284;-49
2021/12/20 04:52:41;;;;;;;5.40;1.75;;;2.30;99.90;;;;;;5012745;28;20662;-49
2021/12/20 04:55:09;;;;;;;12.52;2.40;;;2.30;99.90;;;;;;5014079;28;20205;-49
2021/12/20 04:57:36;;;;;;;4.95;1.95;;;2.20;99.90;;;;;;5013422;28;20197;-49
2021/12/20 05:00:05;;;;;;;4.78;2.40;;;2.10;99.90;;;;;;5013254;28;20225;-50
2021/12/20 05:02:32;;;;;;;6.00;2.45;;;2.30;99.90;;;;;;5013151;28;20603;-49
2021/12/20 05:04:58;;;;;;;18.52;2.55;;;2.30;99.90;;;;;;5013705;28;20193;-49
2021/12/20 05:07:26;;;;;;;8.65;2.30;;;2.30;99.90;;;;;;5013656;28;20546;-50
2021/12/20 05:09:58;;;;;;;9.77;2.15;;;2.40;99.90;;;;;;5013244;28;20194;-50
2021/12/20 05:12:25;;;;;;;6.75;2.50;;;2.30;99.90;;;;;;5013126;28;20221;-50
2021/12/20 05:14:52;;;;;;;7.55;2.05;;;2.20;99.90;;;;;;5013357;28;20213;-50
2021/12/20 05:17:18;;;;;;;12.10;1.95;;;2.60;99.90;;;;;;5013092;28;20209;-50
2021/12/20 05:19:45;;;;;;;5.40;2.30;;;1.90;99.90;;;;;;5012430;28;20232;-50
2021/12/20 05:22:15;;;;;;;3.47;1.65;;;2.10;99.90;;;;;;5013024;28;20193;-50
2021/12/20 05:24:41;;;;;;;8.93;2.42;;;2.30;99.90;;;;;;5013146;28;20205;-50
2021/12/20 05:27:09;;;;;;;5.35;2.13;;;2.30;99.90;;;;;;5013137;28;20202;-49
2021/12/20 05:29:36;;;;;;;5.68;2.05;;;2.50;99.90;;;;;;5012255;28;20212;-50
2021/12/20 05:32:05;;;;;;;8.48;2.40;;;2.20;99.90;;;;;;5012906;28;20232;-49
2021/12/20 05:34:32;;;;;;;11.75;3.33;;;2.00;99.90;;;;;;5012475;28;20202;-50
2021/12/20 05:36:59;;;;;;;6.32;2.40;;;2.10;99.90;;;;;;5012762;28;20585;-49
2021/12/20 05:39:26;;;;;;;5.70;1.77;;;2.20;99.90;;;;;;5011968;28;20197;-50
2021/12/20 05:41:53;;;;;;;17.33;2.33;;;1.90;99.90;;;;;;5012788;28;20593;-50
2021/12/20 05:44:21;;;;;;;6.90;2.03;;;2.00;99.90;;;;;;5012388;28;20292;-51
2021/12/20 05:46:47;;;;;;;9.00;1.95;;;2.20;99.90;;;;;;5012464;28;20197;-50
2021/12/20 05:49:14;;;;;;;8.70;2.28;;;1.90;99.90;;;;;;5011871;28;20205;-49
2021/12/20 05:51:41;;;;;;;5.25;2.30;;;2.20;99.90;;;;;;5012546;28;20185;-50
2021/12/20 05:54:08;;;;;;;9.70;2.20;;;2.10;99.90;;;;;;5012248;28;20217;-50
2021/12/20 05:56:34;;;;;;;5.45;2.13;;;1.90;99.90;;;;;;5012501;28;20569;-50
2021/12/20 05:59:01;;;;;;;5.43;2.15;;;1.90;99.90;;;;;;5012069;28;20255;-50
2021/12/20 06:01:29;;;;;;;6.20;2.10;;;1.80;99.90;;;;;;5012543;28;20598;-50
2021/12/20 06:03:57;;;;;;;4.75;2.50;;;2.00;99.90;;;;;;5011734;28;20213;-50
2021/12/20 06:06:26;;;;;;;5.05;2.10;;;2.00;99.90;;;;;;5011999;28;20243;-50
2021/12/20 06:08:53;;;;;;;4.63;2.50;;;1.60;99.90;;;;;;5009897;28;20778;-52
2021/12/20 06:11:20;;;;;;;6.05;2.53;;;2.20;99.90;;;;;;5012200;28;20196;-49
2021/12/20 06:13:46;;;;;;;10.98;2.58;;;2.10;99.90;;;;;;5011849;28;20321;-50
2021/12/20 06:16:13;;;;;;;7.60;2.00;;;2.20;99.90;;;;;;5011979;28;20201;-50
2021/12/20 06:18:41;;;;;;;4.07;2.40;;;2.10;99.90;;;;;;5011442;28;20658;-53
2021/12/20 06:21:08;;;;;;;10.18;2.97;;;2.10;99.90;;;;;;5013129;28;20214;-51
2021/12/20 06:23:36;;;;;;;9.82;2.30;;;2.10;99.90;;;;;;5018584;28;20278;-51
2021/12/20 06:26:03;;;;;;;6.30;2.40;;;2.20;99.90;;;;;;5011695;28;20205;-51
2021/12/20 06:28:30;;;;;;;7.53;2.30;;;2.10;99.90;;;;;;5011628;28;20205;-51
2021/12/20 06:30:57;;;;;;;7.65;2.42;;;2.20;99.90;;;;;;5010950;28;20531;-50
2021/12/20 06:33:23;;;;;;;8.40;2.85;;;2.10;99.90;;;;;;5011968;28;20225;-51
2021/12/20 06:35:53;;;;;;;11.13;3.05;;;2.20;99.90;;;;;;5010779;28;20201;-50
2021/12/20 06:38:21;;;;;;;7.43;2.88;;;2.10;99.90;;;;;;5007705;28;20255;-53
2021/12/20 06:40:49;;;;;;;6.57;2.30;;;2.60;99.90;;;;;;5010756;28;20217;-50
2021/12/20 06:43:16;;;;;;;10.40;3.25;;;2.10;99.90;;;;;;5010487;28;20692;-52
2021/12/20 06:45:43;;;;;;;12.75;3.13;;;2.10;99.90;;;;;;5009715;28;20227;-52
2021/12/20 06:48:10;;;;;;;5.80;2.45;;;2.30;99.90;;;;;;5010081;28;20197;-52
2021/12/20 06:50:37;;;;;;;10.35;3.58;;;2.70;99.90;;;;;;5010767;28;20197;-52
2021/12/20 06:53:06;;;;;;;4.57;3.05;;;2.30;99.90;;;;;;5009516;28;20232;-50
2021/12/20 06:55:33;;;;;;;11.73;2.83;;;2.10;99.90;;;;;;5010717;28;20205;-51
2021/12/20 06:58:00;;;;;;;10.95;3.00;;;2.60;99.90;;;;;;5010515;28;20716;-51
2021/12/20 07:00:27;;;;;;;5.63;2.30;;;2.00;99.90;;;;;;5010242;28;20213;-50
2021/12/20 07:02:54;;;;;;;5.32;2.42;;;2.60;99.90;;;;;;5010545;28;20267;-51
2021/12/20 07:05:21;;;;;;;8.23;3.28;;;2.10;99.90;;;;;;5010666;28;20212;-52
2021/12/20 07:07:47;;;;;;;6.63;2.10;;;2.10;99.90;;;;;;5010689;28;20201;-52
2021/12/20 07:10:15;;;;;;;11.07;3.30;;;1.90;99.90;;;;;;5010901;28;20224;-52
2021/12/20 07:12:42;;;;;;;7.03;2.30;;;2.10;99.90;;;;;;5010624;28;20221;-51
2021/12/20 07:15:12;;;;;;;13.23;3.42;;;2.30;99.90;;;;;;5008501;28;20654;-50
2021/12/20 07:17:39;;;;;;;7.68;3.38;;;1.50;99.90;;;;;;5010245;28;20251;-49
2021/12/20 07:20:07;;;;;;;16.48;3.55;;;2.20;99.90;;;;;;5010609;28;20205;-50
2021/12/20 07:22:34;;;;;;;7.35;2.75;;;2.00;99.90;;;;;;5010318;28;20601;-51
2021/12/20 07:25:01;;;;;;;9.90;4.40;;;2.50;99.90;;;;;;5010539;28;20831;-51
2021/12/20 07:27:30;;;;;;;7.28;2.53;;;2.60;99.90;;;;;;5010427;28;20201;-50
2021/12/20 07:29:57;;;;;;;6.20;2.72;;;2.20;99.90;;;;;;5010176;28;20344;-50
2021/12/20 07:32:24;;;;;;;7.00;2.80;;;1.90;99.90;;;;;;5008569;28;20229;-50
2021/12/20 07:34:50;;;;;;;6.40;2.50;;;2.60;99.90;;;;;;5010725;28;20734;-53
2021/12/20 07:37:17;;;;;;;7.68;2.55;;;2.20;99.90;;;;;;5010102;28;20212;-51
2021/12/20 07:39:44;;;;;;;12.45;3.55;;;2.50;99.90;;;;;;5010337;28;20200;-51
2021/12/20 07:42:11;;;;;;;8.65;3.15;;;2.00;99.90;;;;;;5010246;28;20228;-50
2021/12/20 07:44:39;;;;;;;7.80;3.22;;;2.00;99.90;;;;;;5010635;28;20551;-51
2021/12/20 07:47:05;;;;;;;14.63;6.82;;;2.10;99.90;;;;;;5010452;28;20198;-51
2021/12/20 07:49:34;;;;;;;8.32;3.90;;;2.10;99.90;;;;;;5009975;28;20246;-50
2021/12/20 07:52:01;;;;;;;7.43;3.17;;;2.40;99.90;;;;;;5009907;28;20193;-50
2021/12/20 07:54:27;;;;;;;9.18;2.83;;;2.40;99.90;;;;;;5010447;28;20293;-51
2021/12/20 07:56:54;;;;;;;8.68;3.20;;;2.20;99.90;;;;;;5010168;28;20209;-50
2021/12/20 07:59:21;;;;;;;14.25;3.20;;;2.20;99.90;;;;;;5008363;28;20212;-51
2021/12/20 08:01:49;;;;;;;11.13;3.17;;;2.10;99.90;;;;;;5008584;28;20294;-51
2021/12/20 08:04:15;;;;;;;8.65;3.60;;;2.30;99.90;;;;;;5010072;28;20252;-51
2021/12/20 08:06:43;;;;;;;8.95;3.15;;;2.20;99.90;;;;;;5010274;28;20203;-51
2021/12/20 08:09:11;;;;;;;9.57;3.55;;;2.10;99.90;;;;;;5009544;28;20541;-51
2021/12/20 08:11:38;;;;;;;6.95;2.95;;;2.20;99.90;;;;;;5009906;28;20232;-51
2021/12/20 08:14:05;;;;;;;5.40;3.25;;;2.30;99.90;;;;;;5010006;28;20217;-50
2021/12/20 08:16:32;;;;;;;13.95;2.80;;;2.50;99.90;;;;;;5010248;28;20255;-51
2021/12/20 08:19:00;;;;;;;7.28;3.72;;;2.40;99.90;;;;;;5008263;28;20209;-51
2021/12/20 08:21:27;;;;;;;12.38;4.30;;;2.80;99.90;;;;;;5009647;28;20720;-51
2021/12/20 08:23:54;;;;;;;8.38;4.07;;;2.40;99.90;;;;;;5009655;28;20221;-50
2021/12/20 08:26:20;;;;;;;8.00;3.42;;;2.40;99.90;;;;;;5009626;28;20601;-50
2021/12/20 08:28:47;;;;;;;11.50;3.38;;;2.30;99.90;;;;;;5012026;28;20197;-51
2021/12/20 08:31:14;;;;;;;7.30;3.60;;;2.40;99.90;;;;;;5013882;28;20193;-51
2021/12/20 08:33:40;;;;;;;7.10;3.08;;;2.60;99.90;;;;;;5013011;28;20240;-51
2021/12/20 08:36:12;;;;;;;6.50;2.85;;;2.50;99.90;;;;;;5013398;28;20670;-51
2021/12/20 08:38:39;;;;;;;7.07;2.80;;;2.50;99.90;;;;;;5013128;28;20197;-51
2021/12/20 08:41:07;;;;;;;7.70;3.53;;;2.70;99.90;;;;;;5013705;28;20359;-51
2021/12/20 08:43:33;;;;;;;8.45;2.95;;;2.60;99.90;;;;;;5012973;28;20217;-51
2021/12/20 08:46:02;;;;;;;8.02;2.90;;;2.50;99.90;;;;;;5020261;28;20593;-51
2021/12/20 08:48:29;;;;;;;6.68;3.22;;;2.60;99.90;;;;;;5013548;28;20697;-51
2021/12/20 08:50:56;;;;;;;4.90;2.70;;;2.60;99.90;;;;;;5013060;28;20573;-51
2021/12/20 08:53:24;;;;;;;5.55;3.60;;;2.50;99.90;;;;;;5012759;28;20223;-52
2021/12/20 08:55:50;;;;;;;9.48;3.10;;;3.00;99.90;;;;;;5013274;28;20685;-51
2021/12/20 08:58:17;;;;;;;9.50;3.30;;;2.50;99.90;;;;;;5008899;28;20225;-51
2021/12/20 09:00:44;;;;;;;10.50;3.72;;;2.60;99.90;;;;;;5014197;28;20254;-51
2021/12/20 09:03:10;;;;;;;8.40;4.18;;;2.60;99.90;;;;;;5013248;28;20737;-51
2021/12/20 09:05:37;;;;;;;9.68;3.80;;;3.00;99.90;;;;;;5012915;28;20205;-51
2021/12/20 09:08:06;;;;;;;9.15;3.45;;;3.20;99.90;;;;;;5012720;28;20197;-51
2021/12/20 09:10:34;;;;;;;10.18;3.90;;;3.10;99.90;;;;;;5013020;28;20351;-51
2021/12/20 09:13:02;;;;;;;10.52;3.65;;;2.80;99.90;;;;;;5012853;28;20221;-51
2021/12/20 09:15:28;;;;;;;9.85;4.10;;;2.90;99.90;;;;;;5010954;28;20209;-51
2021/12/20 09:17:56;;;;;;;6.90;3.60;;;2.80;99.90;;;;;;5012272;28;20293;-51
2021/12/20 09:20:24;;;;;;;12.95;4.47;;;3.00;99.90;;;;;;5012814;28;20201;-51
2021/12/20 09:22:53;;;;;;;10.55;3.50;;;3.20;99.90;;;;;;4992953;28;20230;-51
2021/12/20 09:25:22;;;;;;;7.88;3.35;;;2.90;99.90;;;;;;4993312;28;20202;-51
2021/12/20 09:27:51;;;;;;;9.90;3.50;;;2.70;99.90;;;;;;4992692;28;20203;-49
2021/12/20 09:30:19;;;;;;;8.98;3.75;;;3.10;99.90;;;;;;4993012;28;20201;-51
2021/12/20 09:32:45;;;;;;;8.40;3.00;;;3.00;99.90;;;;;;4992690;28;20214;-50
2021/12/20 09:35:12;;;;;;;5.85;3.28;;;2.70;99.90;;;;;;4993052;28;20210;-51
2021/12/20 09:37:40;;;;;;;8.27;3.35;;;2.80;99.90;;;;;;4992871;28;20621;-51
2021/12/20 09:40:11;;;;;;;10.35;3.60;;;3.20;99.90;;;;;;4991832;28;20205;-51
2021/12/20 09:42:44;;;;;;;13.60;2.97;;;2.90;99.90;;;;;;4991431;28;20221;-50
2021/12/20 09:45:12;;;;;;;7.35;3.55;;;3.00;99.90;;;;;;4991470;28;20643;-51
2021/12/20 09:47:39;;;;;;;6.68;2.95;;;3.10;99.90;;;;;;4992475;28;20513;-50
2021/12/20 09:50:07;;;;;;;10.15;3.33;;;3.20;99.90;;;;;;4991385;28;20209;-50
2021/12/20 09:52:33;;;;;;;8.88;3.25;;;3.20;99.90;;;;;;4992048;28;20447;-51
2021/12/20 09:55:00;;;;;;;8.43;3.80;;;2.60;99.90;;;;;;4996201;28;20533;-50
2021/12/20 09:57:27;;;;;;;9.13;3.80;;;3.10;99.90;;;;;;5011693;28;20276;-50
2021/12/20 09:59:54;;;;;;;10.80;3.50;;;3.30;99.90;;;;;;5010877;28;20197;-51
2021/12/20 10:02:22;;;;;;;13.47;4.00;;;3.30;99.90;;;;;;5011353;28;20523;-51
2021/12/20 10:04:49;;;;;;;8.25;3.00;;;3.60;99.90;;;;;;5011451;28;20468;-50
2021/12/20 10:07:20;;;;;;;8.15;2.97;;;3.40;99.90;;;;;;5009686;28;20321;-51
2021/12/20 10:09:48;;;;;;;7.57;2.80;;;3.50;99.90;;;;;;5010607;28;20207;-49
2021/12/20 10:12:19;;;;;;;7.65;2.40;;;3.40;99.90;;;;;;5010661;28;20193;-51
2021/12/20 10:14:54;;;;;;;5.93;2.30;;;3.50;99.90;;;;;;5010910;28;20682;-50
2021/12/20 10:17:22;;;;;;;8.48;2.90;;;3.00;99.90;;;;;;5010475;28;20273;-50
2021/12/20 10:19:50;;;;;;;5.45;2.55;;;3.40;99.90;;;;;;5010264;28;20263;-51
2021/12/20 10:22:25;;;;;;;3.78;2.10;;;3.50;99.90;;;;;;5009712;28;20236;-50
2021/12/20 10:24:52;;;;;;;6.22;2.35;;;3.40;99.90;;;;;;5010171;28;20280;-50
2021/12/20 10:27:29;;;;;;;10.80;3.55;;;3.40;99.90;;;;;;5010125;28;20205;-49
2021/12/20 10:29:56;;;;;;;6.93;2.75;;;3.60;99.90;;;;;;5011068;28;20573;-50
2021/12/20 10:32:41;;;;;;;9.20;2.92;;;3.80;99.90;;;;;;5011235;28;20217;-50
2021/12/20 10:35:35;;;;;;;10.18;3.15;;;3.70;99.90;;;;;;5010725;28;20434;-49
2021/12/20 10:38:04;;;;;;;5.82;2.33;;;3.60;99.90;;;;;;5011154;28;20312;-50
2021/12/20 10:40:32;;;;;;;8.43;3.25;;;3.20;99.90;;;;;;5010162;28;20567;-50
2021/12/20 10:43:00;;;;;;;6.38;3.17;;;3.90;99.90;;;;;;5010157;28;20248;-49
2021/12/20 10:45:28;;;;;;;7.10;3.05;;;3.90;99.90;;;;;;5010453;28;20197;-50
2021/12/20 10:48:07;;;;;;;3.92;2.63;;;3.30;99.90;;;;;;5010780;28;20284;-50
2021/12/20 10:50:42;;;;;;;8.90;2.95;;;3.90;99.90;;;;;;5009927;28;20197;-50
2021/12/20 10:53:17;;;;;;;5.95;2.50;;;3.90;99.90;;;;;;5010105;28;20228;-50
2021/12/20 10:55:46;;;;;;;7.13;3.20;;;3.80;99.90;;;;;;5009921;28;20204;-50
2021/12/20 10:58:31;;;;;;;7.47;2.95;;;3.50;99.90;;;;;;5009538;28;20212;-50
2021/12/20 11:01:21;;;;;;;8.40;2.65;;;4.00;99.90;;;;;;5009867;28;20200;-52
2021/12/20 11:04:08;;;;;;;10.65;3.25;;;3.70;99.90;;;;;;5010007;28;20244;-52
2021/12/20 11:06:56;;;;;;;5.82;2.83;;;3.70;99.90;;;;;;5008642;28;20654;-51
2021/12/20 11:09:25;;;;;;;9.95;2.50;;;4.10;99.90;;;;;;5008616;28;20209;-50
2021/12/20 11:11:53;;;;;;;5.85;2.47;;;3.30;99.90;;;;;;5009106;28;20198;-50
2021/12/20 11:14:22;;;;;;;14.13;2.88;;;3.90;99.90;;;;;;5010506;28;20201;-50
2021/12/20 11:16:51;;;;;;;4.47;2.85;;;3.90;99.90;;;;;;5010903;28;20201;-50
2021/12/20 11:19:24;;;;;;;6.15;2.25;;;3.80;99.90;;;;;;5010861;28;20209;-49
2021/12/20 11:21:55;;;;;;;6.53;3.33;;;3.80;99.90;;;;;;5011347;28;20228;-51
2021/12/20 11:24:24;;;;;;;6.82;3.30;;;3.90;99.90;;;;;;5010330;28;20232;-51
2021/12/20 11:26:52;;;;;;;4.60;2.30;;;3.90;99.90;;;;;;5010563;28;20821;-53
2021/12/20 11:29:20;;;;;;;5.55;2.38;;;4.00;99.90;;;;;;5009756;28;20206;-53
2021/12/20 11:31:47;;;;;;;11.52;2.70;;;4.10;99.90;;;;;;5009794;28;20190;-51
2021/12/20 11:34:14;;;;;;;6.82;2.63;;;3.80;99.90;;;;;;5009420;28;20270;-52
2021/12/20 11:36:42;;;;;;;8.50;2.72;;;4.10;99.90;;;;;;5010039;28;20236;-51
2021/12/20 11:39:10;;;;;;;5.00;2.50;;;4.00;99.90;;;;;;5009845;28;20220;-50
2021/12/20 11:41:37;;;;;;;7.65;2.88;;;4.00;99.90;;;;;;5005212;28;20277;-50
2021/12/20 11:44:06;;;;;;;7.90;2.90;;;4.20;99.90;;;;;;4991023;28;20340;-50
2021/12/20 11:46:40;;;;;;;6.68;3.47;;;4.00;99.90;;;;;;4990964;28;20210;-52
2021/12/20 11:49:07;;;;;;;6.93;2.50;;;4.10;99.90;;;;;;4990350;28;20202;-51
2021/12/20 11:52:00;;;;;;;8.80;2.42;;;4.00;99.90;;;;;;4989600;28;20252;-50
2021/12/20 11:54:42;;;;;;;8.55;3.30;;;4.10;99.90;;;;;;4990632;28;20202;-50
2021/12/20 11:57:47;;;;;;;3.65;2.42;;;4.10;99.90;;;;;;4991208;28;20284;-50
2021/12/20 12:00:24;;;;;;;11.65;3.28;;;4.20;99.90;;;;;;4991275;28;20583;-53
2021/12/20 12:02:53;;;;;;;9.20;3.85;;;3.70;99.90;;;;;;4993371;28;20233;-52
2021/12/20 12:05:34;;;;;;;6.82;3.22;;;4.10;99.90;;;;;;4995006;28;20198;-54
2021/12/20 12:08:33;;;;;;;7.78;3.58;;;3.80;99.90;;;;;;5013930;28;20658;-51
2021/12/20 12:11:16;;;;;;;6.75;3.03;;;4.30;99.90;;;;;;5014222;28;20248;-53
2021/12/20 12:17:00;;;;;;;5.95;3.72;;;3.90;99.90;;;;;;5006286;28;20827;-52
2021/12/20 12:19:44;;;;;;;7.60;3.05;;;4.10;99.90;;;;;;5011121;28;20205;-51
2021/12/20 12:22:34;;;;;;;8.98;3.70;;;4.10;99.90;;;;;;5011608;28;20237;-53
2021/12/20 12:25:02;;;;;;;8.70;3.67;;;4.40;99.90;;;;;;5013333;28;20208;-53
2021/12/20 12:27:30;;;;;;;10.25;2.97;;;4.30;99.90;;;;;;5013094;28;20247;-52
2021/12/20 12:30:30;;;;;;;10.85;3.83;;;4.20;99.90;;;;;;5012738;28;20197;-50
2021/12/20 12:33:27;;;;;;;7.80;3.33;;;4.30;99.90;;;;;;5013345;28;20206;-52
2021/12/20 12:35:57;;;;;;;7.82;2.83;;;4.30;99.90;;;;;;5013956;28;20684;-53
2021/12/20 12:38:27;;;;;;;8.43;2.90;;;4.20;99.90;;;;;;5013625;28;20190;-50
2021/12/20 12:41:16;;;;;;;5.70;2.80;;;4.30;99.90;;;;;;5013311;28;20571;-53
2021/12/20 12:44:08;;;;;;;10.48;3.90;;;4.00;99.90;;;;;;5013094;28;20220;-52
2021/12/20 12:47:00;;;;;;;6.50;3.28;;;4.20;99.90;;;;;;5012995;28;20201;-52
2021/12/20 12:49:56;;;;;;;8.80;3.75;;;4.20;99.90;;;;;;5012336;28;20224;-51
2021/12/20 12:52:41;;;;;;;12.50;3.83;;;4.30;99.90;;;;;;5011574;28;20686;-51
2021/12/20 12:55:30;;;;;;;6.28;2.75;;;4.40;99.90;;;;;;5013189;28;20204;-52
2021/12/20 12:57:58;;;;;;;10.27;3.30;;;4.30;99.90;;;;;;5013139;28;20193;-51
2021/12/20 13:00:31;;;;;;;13.20;3.80;;;4.20;99.90;;;;;;5013737;28;20186;-50
2021/12/20 13:03:10;;;;;;;10.15;3.85;;;3.80;99.90;;;;;;5012455;28;20604;-51
2021/12/20 13:05:38;;;;;;;7.32;3.60;;;3.70;99.90;;;;;;5012370;28;20208;-51
2021/12/20 13:08:05;;;;;;;6.32;4.07;;;4.60;99.90;;;;;;5010576;28;20206;-52
2021/12/20 13:10:37;;;;;;;7.35;3.53;;;4.50;99.90;;;;;;5010215;28;20421;-51
2021/12/20 13:13:08;;;;;;;6.88;3.53;;;4.30;99.90;;;;;;5009887;28;20217;-51
2021/12/20 13:15:40;;;;;;;6.78;4.50;;;4.50;99.90;;;;;;5011219;28;20205;-51
2021/12/20 13:18:09;;;;;;;8.50;4.03;;;4.60;99.90;;;;;;5011070;28;20288;-52
2021/12/20 13:20:43;;;;;;;12.57;4.10;;;4.40;99.90;;;;;;5012076;28;20193;-52